createdAt,value
2018-08-16T00:00:04.919Z,101327.24
2018-08-16T00:02:30.886Z,101325.73
2018-08-16T00:04:56.864Z,101329.22
2018-08-16T00:07:22.896Z,101324.05
2018-08-16T00:09:48.862Z,101322.26
2018-08-16T00:12:14.827Z,101326.73
2018-08-16T00:14:40.868Z,101322.92
2018-08-16T00:17:06.849Z,101323.26
2018-08-16T00:19:32.912Z,101327.56
2018-08-16T00:21:58.910Z,101324.58
2018-08-16T00:24:24.869Z,101318.94
2018-08-16T00:26:50.816Z,101323.61
2018-08-16T00:29:16.797Z,101316.48
2018-08-16T00:31:42.797Z,101318.17
2018-08-16T00:34:08.768Z,101315.48
2018-08-16T00:36:34.737Z,101315.66
2018-08-16T00:39:00.737Z,101315.00
2018-08-16T00:41:26.988Z,101312.83
2018-08-16T00:43:52.955Z,101313.00
2018-08-16T00:46:18.954Z,101321.60
2018-08-16T00:48:44.960Z,101326.77
2018-08-16T00:51:10.947Z,101322.10
2018-08-16T00:53:36.916Z,101324.45
2018-08-16T00:56:02.937Z,101321.28
2018-08-16T00:58:28.923Z,101317.94
2018-08-16T01:00:54.908Z,101314.98
2018-08-16T01:03:20.929Z,101319.44
2018-08-16T01:05:46.890Z,101312.62
2018-08-16T01:08:12.851Z,101318.27
2018-08-16T01:10:38.863Z,101313.95
2018-08-16T01:13:04.831Z,101305.30
2018-08-16T01:15:30.841Z,101306.66
2018-08-16T01:17:56.825Z,101302.97
2018-08-16T01:20:22.937Z,101305.63
2018-08-16T01:22:48.869Z,101302.67
2018-08-16T01:25:14.842Z,101304.98
2018-08-16T01:27:40.775Z,101309.97
2018-08-16T01:30:06.765Z,101306.30
2018-08-16T01:32:32.737Z,101311.45
2018-08-16T01:34:58.706Z,101306.48
2018-08-16T01:37:24.676Z,101299.99
2018-08-16T01:39:50.653Z,101297.84
2018-08-16T01:42:16.616Z,101296.83
2018-08-16T01:44:42.589Z,101300.59
2018-08-16T01:47:08.574Z,101294.02
2018-08-16T01:49:34.556Z,101291.88
2018-08-16T01:52:00.560Z,101297.19
2018-08-16T01:54:27.541Z,101294.68
2018-08-16T01:56:53.549Z,101293.02
2018-08-16T01:59:19.531Z,101294.36
2018-08-16T02:01:45.749Z,101300.64
2018-08-16T02:04:11.717Z,101297.51
2018-08-16T02:06:37.719Z,101288.03
2018-08-16T02:09:03.680Z,101286.03
2018-08-16T02:11:29.957Z,101287.69
2018-08-16T02:13:55.936Z,101283.64
2018-08-16T02:16:21.930Z,101287.13
2018-08-16T02:18:47.945Z,101284.70
2018-08-16T02:21:14.288Z,101283.52
2018-08-16T02:23:40.242Z,101284.80
2018-08-16T02:26:06.281Z,101282.72
2018-08-16T02:28:32.268Z,101284.32
2018-08-16T02:30:58.381Z,101280.84
2018-08-16T02:33:24.421Z,101283.31
2018-08-16T02:35:50.356Z,101282.19
2018-08-16T02:38:16.322Z,101280.16
2018-08-16T02:40:42.271Z,101282.50
2018-08-16T02:43:08.257Z,101276.35
2018-08-16T02:45:34.579Z,101274.41
2018-08-16T02:48:00.561Z,101274.34
2018-08-16T02:50:26.535Z,101269.53
2018-08-16T02:52:52.515Z,101268.20
2018-08-16T02:55:18.498Z,101263.06
2018-08-16T02:57:44.487Z,101255.43
2018-08-16T03:00:10.511Z,101261.07
2018-08-16T03:02:36.503Z,101257.23
2018-08-16T03:07:34.950Z,101261.56
2018-08-16T03:10:00.958Z,101258.73
2018-08-16T03:12:26.955Z,101261.39
2018-08-16T03:14:52.973Z,101251.16
2018-08-16T03:17:18.956Z,101248.83
2018-08-16T03:19:45.251Z,101242.34
2018-08-16T03:22:11.215Z,101235.66
2018-08-16T03:24:37.361Z,101228.40
2018-08-16T03:27:03.356Z,101236.17
2018-08-16T03:29:29.352Z,101228.86
2018-08-16T03:31:55.320Z,101226.19
2018-08-16T03:34:21.285Z,101227.16
2018-08-16T03:36:47.261Z,101219.56
2018-08-16T03:39:13.244Z,101218.38
2018-08-16T03:41:39.230Z,101221.38
2018-08-16T03:44:05.171Z,101223.22
2018-08-16T03:46:31.191Z,101220.41
2018-08-16T03:48:57.198Z,101216.72
2018-08-16T03:51:23.192Z,101218.55
2018-08-16T03:53:49.179Z,101213.89
2018-08-16T03:56:15.165Z,101216.37
2018-08-16T03:58:41.151Z,101217.89
2018-08-16T04:01:07.139Z,101213.05
2018-08-16T04:03:33.118Z,101223.52
2018-08-16T04:05:59.401Z,101217.88
2018-08-16T04:08:25.392Z,101217.58
2018-08-16T04:10:51.375Z,101218.36
2018-08-16T04:13:17.352Z,101220.04
2018-08-16T04:15:43.312Z,101222.37
2018-08-16T04:18:09.330Z,101223.87
2018-08-16T04:20:35.288Z,101223.17
2018-08-16T04:23:01.419Z,101219.69
2018-08-16T04:25:27.376Z,101222.39
2018-08-16T04:27:53.390Z,101223.20
2018-08-16T04:30:19.469Z,101224.53
2018-08-16T04:32:45.442Z,101227.17
2018-08-16T04:35:11.540Z,101231.15
2018-08-16T04:37:37.467Z,101235.13
2018-08-16T04:40:03.441Z,101230.66
2018-08-16T04:42:29.424Z,101230.97
2018-08-16T04:44:55.406Z,101233.48
2018-08-16T04:47:21.400Z,101240.13
2018-08-16T04:49:47.337Z,101237.46
2018-08-16T04:52:13.312Z,101239.12
2018-08-16T04:54:39.268Z,101229.00
2018-08-16T04:57:05.335Z,101225.98
2018-08-16T04:59:31.212Z,101223.51
2018-08-16T05:01:57.188Z,101223.84
2018-08-16T05:04:23.153Z,101227.32
2018-08-16T05:06:49.146Z,101222.52
2018-08-16T05:09:15.139Z,101225.99
2018-08-16T05:11:41.101Z,101232.16
2018-08-16T05:14:07.088Z,101230.66
2018-08-16T05:16:33.094Z,101238.45
2018-08-16T05:18:59.062Z,101232.45
2018-08-16T05:21:25.280Z,101235.11
2018-08-16T05:23:51.274Z,101230.33
2018-08-16T05:26:17.220Z,101226.34
2018-08-16T05:28:43.199Z,101228.30
2018-08-16T05:31:09.172Z,101229.30
2018-08-16T05:33:35.281Z,101226.31
2018-08-16T05:36:01.641Z,101230.13
2018-08-16T05:38:27.857Z,101222.16
2018-08-16T05:40:53.851Z,101221.00
2018-08-16T05:43:19.871Z,101229.31
2018-08-16T05:45:45.824Z,101220.67
2018-08-16T05:48:11.794Z,101225.81
2018-08-16T05:50:37.793Z,101226.50
2018-08-16T05:53:03.778Z,101228.17
2018-08-16T05:55:29.738Z,101224.34
2018-08-16T05:57:55.700Z,101223.16
2018-08-16T06:00:21.712Z,101221.68
2018-08-16T06:02:47.724Z,101215.67
2018-08-16T06:05:13.692Z,101219.00
2018-08-16T06:07:39.921Z,101212.38
2018-08-16T06:10:05.812Z,101217.20
2018-08-16T06:12:31.827Z,101211.55
2018-08-16T06:14:57.818Z,101208.86
2018-08-16T06:17:24.028Z,101197.28
2018-08-16T06:19:50.013Z,101200.94
2018-08-16T06:22:16.002Z,101196.30
2018-08-16T06:24:41.977Z,101195.96
2018-08-16T06:27:07.942Z,101190.00
2018-08-16T06:29:33.932Z,101193.30
2018-08-16T06:31:59.905Z,101189.95
2018-08-16T06:34:25.900Z,101193.11
2018-08-16T06:36:51.892Z,101186.31
2018-08-16T06:39:17.892Z,101191.13
2018-08-16T06:41:43.949Z,101188.30
2018-08-16T06:44:09.981Z,101187.48
2018-08-16T06:46:35.942Z,101185.50
2018-08-16T06:49:02.017Z,101183.98
2018-08-16T06:51:27.979Z,101191.97
2018-08-16T06:53:54.006Z,101191.28
2018-08-16T06:56:19.983Z,101192.94
2018-08-16T06:58:45.957Z,101187.98
2018-08-16T07:01:11.931Z,101183.84
2018-08-16T07:03:37.906Z,101180.36
2018-08-16T07:06:03.880Z,101183.02
2018-08-16T07:08:29.861Z,101171.38
2018-08-16T07:10:55.826Z,101179.34
2018-08-16T07:13:21.857Z,101170.73
2018-08-16T07:15:47.869Z,101178.02
2018-08-16T07:18:13.873Z,101175.87
2018-08-16T07:20:39.863Z,101173.89
2018-08-16T07:23:05.864Z,101163.91
2018-08-16T07:25:31.865Z,101172.72
2018-08-16T07:27:57.831Z,101168.05
2018-08-16T07:30:23.813Z,101165.90
2018-08-16T07:32:49.804Z,101170.38
2018-08-16T07:35:15.808Z,101168.24
2018-08-16T07:37:41.988Z,101162.27
2018-08-16T07:40:07.989Z,101168.26
2018-08-16T07:42:33.987Z,101164.14
2018-08-16T07:44:59.985Z,101168.31
2018-08-16T07:47:25.968Z,101164.91
2018-08-16T07:49:51.951Z,101166.41
2018-08-16T07:52:17.918Z,101165.80
2018-08-16T07:54:44.173Z,101169.47
2018-08-16T07:57:10.193Z,101169.63
2018-08-16T07:59:36.372Z,101176.77
2018-08-16T08:02:02.371Z,101173.10
2018-08-16T08:04:28.397Z,101173.61
2018-08-16T08:06:54.384Z,101170.46
2018-08-16T08:09:20.395Z,101173.26
2018-08-16T08:11:46.363Z,101174.78
2018-08-16T08:14:12.351Z,101168.30
2018-08-16T08:16:38.317Z,101168.80
2018-08-16T08:19:04.357Z,101168.64
2018-08-16T08:21:30.461Z,101161.82
2018-08-16T08:23:56.513Z,101167.62
2018-08-16T08:26:22.561Z,101173.91
2018-08-16T08:28:48.593Z,101167.75
2018-08-16T08:31:16.500Z,101168.09
2018-08-16T08:33:42.435Z,101163.82
2018-08-16T08:36:08.410Z,101166.81
2018-08-16T08:38:34.537Z,101167.97
2018-08-16T08:41:00.797Z,101163.33
2018-08-16T08:43:27.067Z,101159.66
2018-08-16T08:45:53.021Z,101163.80
2018-08-16T08:48:18.986Z,101161.31
2018-08-16T08:50:44.967Z,101161.98
2018-08-16T08:53:10.955Z,101159.01
2018-08-16T08:55:36.920Z,101159.00
2018-08-16T08:58:02.931Z,101150.38
2018-08-16T09:00:28.894Z,101147.71
2018-08-16T09:02:54.864Z,101147.71
2018-08-16T09:05:20.836Z,101147.55
2018-08-16T09:07:46.784Z,101144.38
2018-08-16T09:10:12.814Z,101141.90
2018-08-16T09:12:38.805Z,101141.57
2018-08-16T09:15:04.805Z,101138.23
2018-08-16T09:17:30.785Z,101134.42
2018-08-16T09:19:56.751Z,101136.91
2018-08-16T09:22:22.770Z,101125.28
2018-08-16T09:24:48.779Z,101117.98
2018-08-16T09:27:14.769Z,101121.97
2018-08-16T09:29:40.788Z,101123.30
2018-08-16T09:32:06.734Z,101116.48
2018-08-16T09:34:32.715Z,101120.30
2018-08-16T09:36:58.682Z,101113.66
2018-08-16T09:39:24.976Z,101108.84
2018-08-16T09:41:50.855Z,101102.05
2018-08-16T09:44:16.841Z,101103.69
2018-08-16T09:46:43.650Z,101105.17
2018-08-16T09:49:09.625Z,101104.70
2018-08-16T09:51:35.951Z,101104.70
2018-08-16T09:54:01.924Z,101089.56
2018-08-16T09:56:27.941Z,101089.07
2018-08-16T09:58:53.947Z,101090.91
2018-08-16T10:01:19.935Z,101090.55
2018-08-16T10:03:45.988Z,101080.10
2018-08-16T10:06:11.963Z,101083.93
2018-08-16T10:08:37.988Z,101076.94
2018-08-16T10:11:04.055Z,101079.58
2018-08-16T10:13:30.070Z,101079.25
2018-08-16T10:15:56.261Z,101074.28
2018-08-16T10:18:22.250Z,101079.09
2018-08-16T10:20:48.328Z,101083.56
2018-08-16T10:23:14.291Z,101078.59
2018-08-16T10:25:40.270Z,101076.77
2018-08-16T10:28:06.284Z,101077.58
2018-08-16T10:30:32.262Z,101069.95
2018-08-16T10:32:58.312Z,101059.82
2018-08-16T10:35:24.360Z,101058.02
2018-08-16T10:37:50.330Z,101065.97
2018-08-16T10:40:16.344Z,101061.31
2018-08-16T10:42:42.356Z,101063.31
2018-08-16T10:45:08.323Z,101059.47
2018-08-16T10:47:34.304Z,101054.32
2018-08-16T10:50:00.309Z,101055.02
2018-08-16T10:52:26.281Z,101043.84
2018-08-16T10:54:52.254Z,101044.86
2018-08-16T10:57:18.236Z,101042.52
2018-08-16T10:59:44.209Z,101038.88
2018-08-16T11:02:10.220Z,101039.34
2018-08-16T11:04:36.192Z,101038.18
2018-08-16T11:07:03.250Z,101038.21
2018-08-16T11:09:29.245Z,101032.41
2018-08-16T11:11:55.289Z,101032.25
2018-08-16T11:14:21.250Z,101031.27
2018-08-16T11:16:47.674Z,101034.06
2018-08-16T11:19:13.674Z,101031.09
2018-08-16T11:21:39.696Z,101031.42
2018-08-16T11:24:05.682Z,101023.80
2018-08-16T11:26:31.694Z,101024.63
2018-08-16T11:28:57.734Z,101019.15
2018-08-16T11:31:23.716Z,101018.80
2018-08-16T11:33:49.792Z,101019.63
2018-08-16T11:36:15.771Z,101019.63
2018-08-16T11:38:41.807Z,101009.98
2018-08-16T11:41:08.064Z,101005.83
2018-08-16T11:43:35.378Z,101006.50
2018-08-16T11:46:01.449Z,101003.17
2018-08-16T11:48:28.202Z,101013.46
2018-08-16T11:50:54.238Z,101003.84
2018-08-16T11:53:20.252Z,101009.16
2018-08-16T11:55:46.311Z,101005.20
2018-08-16T11:58:12.311Z,100996.72
2018-08-16T12:00:38.327Z,100988.74
2018-08-16T12:03:04.291Z,100990.70
2018-08-16T12:05:30.302Z,100985.08
2018-08-16T12:07:56.395Z,100983.23
2018-08-16T12:10:22.388Z,100978.78
2018-08-16T12:12:48.364Z,100978.64
2018-08-16T12:15:14.518Z,100979.72
2018-08-16T12:17:40.601Z,100974.75
2018-08-16T12:20:06.610Z,100970.41
2018-08-16T12:22:32.621Z,100975.38
2018-08-16T12:24:58.606Z,100967.09
2018-08-16T12:27:24.604Z,100960.09
2018-08-16T12:29:50.611Z,100954.89
2018-08-16T12:32:16.610Z,100948.59
2018-08-16T12:34:42.873Z,100948.30
2018-08-16T12:37:08.847Z,100944.15
2018-08-16T12:39:34.865Z,100939.80
2018-08-16T12:42:00.848Z,100943.79
2018-08-16T12:44:26.933Z,100935.18
2018-08-16T12:46:52.862Z,100929.36
2018-08-16T12:49:18.948Z,100927.22
2018-08-16T12:51:44.990Z,100922.41
2018-08-16T12:54:11.003Z,100920.56
2018-08-16T12:56:37.040Z,100921.89
2018-08-16T12:59:03.029Z,100915.39
2018-08-16T13:01:29.030Z,100913.21
2018-08-16T13:03:55.095Z,100912.69
2018-08-16T13:06:21.079Z,100912.69
2018-08-16T13:08:47.103Z,100908.23
2018-08-16T13:11:14.090Z,100904.70
2018-08-16T13:13:40.068Z,100905.58
2018-08-16T13:16:06.095Z,100901.25
2018-08-16T13:18:32.149Z,100896.44
2018-08-16T13:20:58.217Z,100898.07
2018-08-16T13:23:24.305Z,100892.39
2018-08-16T13:25:50.402Z,100890.08
2018-08-16T13:28:16.445Z,100898.89
2018-08-16T13:30:42.520Z,100898.34
2018-08-16T13:33:08.516Z,100891.58
2018-08-16T13:35:34.531Z,100887.80
2018-08-16T13:38:01.576Z,100883.80
2018-08-16T13:40:27.597Z,100877.02
2018-08-16T13:42:53.585Z,100870.86
2018-08-16T13:45:19.597Z,100873.31
2018-08-16T13:47:45.749Z,100870.51
2018-08-16T13:50:11.745Z,100867.31
2018-08-16T13:52:37.747Z,100862.31
2018-08-16T13:55:03.752Z,100861.80
2018-08-16T13:57:29.743Z,100856.47
2018-08-16T13:59:55.695Z,100858.72
2018-08-16T14:02:21.678Z,100852.98
2018-08-16T14:04:47.687Z,100842.73
2018-08-16T14:07:16.972Z,100845.40
2018-08-16T14:09:43.048Z,100843.63
2018-08-16T14:12:09.043Z,100841.77
2018-08-16T14:14:35.042Z,100836.96
2018-08-16T14:17:01.039Z,100841.05
2018-08-16T14:19:27.109Z,100843.71
2018-08-16T14:21:54.082Z,100839.34
2018-08-16T14:24:20.181Z,100844.36
2018-08-16T14:26:46.242Z,100842.36
2018-08-16T14:29:12.224Z,100838.23
2018-08-16T14:31:38.301Z,100840.52
2018-08-16T14:34:04.311Z,100836.52
2018-08-16T14:36:30.313Z,100835.41
2018-08-16T14:38:56.306Z,100835.00
2018-08-16T14:41:22.313Z,100829.89
2018-08-16T14:43:48.329Z,100827.22
2018-08-16T14:46:14.313Z,100824.41
2018-08-16T14:48:40.336Z,100824.42
2018-08-16T14:51:06.294Z,100823.27
2018-08-16T14:53:32.319Z,100819.13
2018-08-16T14:55:58.336Z,100820.30
2018-08-16T14:58:24.317Z,100806.68
2018-08-16T15:00:50.293Z,100811.15
2018-08-16T15:03:16.272Z,100812.80
2018-08-16T15:05:42.268Z,100806.98
2018-08-16T15:08:08.247Z,100805.59
2018-08-16T15:10:34.476Z,100806.84
2018-08-16T15:13:00.467Z,100803.16
2018-08-16T15:15:26.648Z,100801.02
2018-08-16T15:17:52.625Z,100803.83
2018-08-16T15:20:18.589Z,100799.82
2018-08-16T15:22:44.633Z,100805.95
2018-08-16T15:25:10.584Z,100799.84
2018-08-16T15:27:36.590Z,100804.50
2018-08-16T15:30:02.560Z,100795.53
2018-08-16T15:32:28.540Z,100798.36
2018-08-16T15:34:54.526Z,100793.91
2018-08-16T15:37:20.634Z,100790.30
2018-08-16T15:39:46.687Z,100792.87
2018-08-16T15:42:12.673Z,100799.00
2018-08-16T15:44:38.664Z,100791.47
2018-08-16T15:47:04.745Z,100790.97
2018-08-16T15:49:30.739Z,100790.16
2018-08-16T15:51:56.757Z,100790.16
2018-08-16T15:54:22.751Z,100781.19
2018-08-16T15:56:48.787Z,100778.67
2018-08-16T15:59:14.811Z,100784.38
2018-08-16T16:01:40.822Z,100783.55
2018-08-16T16:04:06.804Z,100777.61
2018-08-16T16:06:32.813Z,100786.91
2018-08-16T16:08:58.817Z,100784.02
2018-08-16T16:11:24.831Z,100779.84
2018-08-16T16:13:50.833Z,100779.84
2018-08-16T16:16:16.820Z,100780.13
2018-08-16T16:18:42.783Z,100771.11
2018-08-16T16:21:08.798Z,100775.83
2018-08-16T16:23:34.781Z,100770.66
2018-08-16T16:26:00.746Z,100769.07
2018-08-16T16:28:26.763Z,100766.13
2018-08-16T16:30:52.811Z,100764.22
2018-08-16T16:33:18.746Z,100767.55
2018-08-16T16:35:44.708Z,100762.06
2018-08-16T16:38:10.698Z,100762.30
2018-08-16T16:40:36.656Z,100764.23
2018-08-16T16:43:02.624Z,100759.06
2018-08-16T16:45:28.602Z,100757.56
2018-08-16T16:47:54.583Z,100759.11
2018-08-16T16:50:20.552Z,100765.70
2018-08-16T16:52:46.527Z,100759.93
2018-08-16T16:55:12.495Z,100757.56
2018-08-16T16:57:38.725Z,100762.14
2018-08-16T17:00:04.685Z,100758.84
2018-08-16T17:02:30.695Z,100762.38
2018-08-16T17:04:56.668Z,100758.09
2018-08-16T17:07:22.727Z,100751.58
2018-08-16T17:09:48.663Z,100756.59
2018-08-16T17:12:14.649Z,100753.94
2018-08-16T17:14:40.676Z,100757.41
2018-08-16T17:17:06.769Z,100761.63
2018-08-16T17:19:32.786Z,100760.69
2018-08-16T17:21:58.745Z,100759.45
2018-08-16T17:24:24.728Z,100755.41
2018-08-16T17:26:50.719Z,100754.78
2018-08-16T17:29:16.720Z,100753.27
2018-08-16T17:31:42.723Z,100758.11
2018-08-16T17:34:08.733Z,100754.83
2018-08-16T17:36:34.749Z,100755.87
2018-08-16T17:39:00.736Z,100756.33
2018-08-16T17:41:26.749Z,100758.11
2018-08-16T17:43:52.769Z,100748.38
2018-08-16T17:46:18.752Z,100752.31
2018-08-16T17:48:44.789Z,100752.70
2018-08-16T17:51:10.783Z,100751.69
2018-08-16T17:53:36.783Z,100756.78
2018-08-16T17:56:02.757Z,100760.00
2018-08-16T17:58:28.719Z,100753.59
2018-08-16T18:00:55.099Z,100759.25
2018-08-16T18:03:20.990Z,100761.48
2018-08-16T18:05:47.000Z,100760.22
2018-08-16T18:08:12.987Z,100759.87
2018-08-16T18:10:38.968Z,100758.89
2018-08-16T18:13:04.924Z,100757.93
2018-08-16T18:15:30.936Z,100759.27
2018-08-16T18:17:56.994Z,100756.84
2018-08-16T18:20:22.971Z,100759.27
2018-08-16T18:22:48.926Z,100761.42
2018-08-16T18:25:14.891Z,100756.59
2018-08-16T18:27:40.880Z,100763.55
2018-08-16T18:30:06.884Z,100769.22
2018-08-16T18:32:32.858Z,100769.22
2018-08-16T18:34:58.820Z,100768.92
2018-08-16T18:37:24.837Z,100770.78
2018-08-16T18:39:51.623Z,100771.39
2018-08-16T18:42:17.679Z,100770.13
2018-08-16T18:44:43.703Z,100775.89
2018-08-16T18:47:09.670Z,100773.39
2018-08-16T18:49:35.673Z,100779.22
2018-08-16T18:52:01.698Z,100781.35
2018-08-16T18:54:27.684Z,100782.70
2018-08-16T18:56:53.674Z,100782.05
2018-08-16T18:59:19.698Z,100785.17
2018-08-16T19:01:45.722Z,100787.98
2018-08-16T19:04:11.701Z,100794.73
2018-08-16T19:06:37.731Z,100794.20
2018-08-16T19:09:03.728Z,100795.17
2018-08-16T19:11:29.706Z,100795.66
2018-08-16T19:13:55.706Z,100793.19
2018-08-16T19:16:21.723Z,100797.18
2018-08-16T19:18:47.716Z,100794.52
2018-08-16T19:21:13.714Z,100797.70
2018-08-16T19:23:39.709Z,100804.91
2018-08-16T19:26:05.682Z,100807.22
2018-08-16T19:28:31.688Z,100811.86
2018-08-16T19:30:57.700Z,100811.55
2018-08-16T19:33:23.707Z,100813.36
2018-08-16T19:35:49.733Z,100818.50
2018-08-16T19:38:15.681Z,100815.69
2018-08-16T19:40:41.662Z,100816.21
2018-08-16T19:43:07.630Z,100813.70
2018-08-16T19:45:33.616Z,100813.18
2018-08-16T19:47:59.639Z,100813.63
2018-08-16T19:50:25.676Z,100812.33
2018-08-16T19:52:51.698Z,100813.55
2018-08-16T19:55:17.671Z,100806.91
2018-08-16T19:57:43.647Z,100807.38
2018-08-16T20:00:09.609Z,100807.73
2018-08-16T20:02:35.598Z,100808.19
2018-08-16T20:05:01.558Z,100803.58
2018-08-16T20:07:27.508Z,100798.27
2018-08-16T20:09:53.541Z,100804.25
2018-08-16T20:12:19.471Z,100807.89
2018-08-16T20:14:45.431Z,100807.58
2018-08-16T20:17:11.419Z,100813.20
2018-08-16T20:19:37.518Z,100814.53
2018-08-16T20:22:03.392Z,100814.38
2018-08-16T20:24:29.381Z,100808.03
2018-08-16T20:26:55.363Z,100810.09
2018-08-16T20:29:21.322Z,100809.50
2018-08-16T20:31:47.316Z,100814.52
2018-08-16T20:34:14.015Z,100824.00
2018-08-16T20:36:40.010Z,100822.26
2018-08-16T20:39:05.984Z,100819.41
2018-08-16T20:41:31.991Z,100821.91
2018-08-16T20:43:58.032Z,100827.43
2018-08-16T20:46:24.064Z,100827.38
2018-08-16T20:48:50.155Z,100826.25
2018-08-16T20:51:16.163Z,100818.12
2018-08-16T20:53:42.160Z,100825.44
2018-08-16T20:56:08.135Z,100823.44
2018-08-16T20:58:34.134Z,100817.13
2018-08-16T21:01:00.174Z,100819.91
2018-08-16T21:03:26.131Z,100824.72
2018-08-16T21:05:52.082Z,100825.69
2018-08-16T21:08:18.055Z,100824.02
2018-08-16T21:10:44.017Z,100824.02
2018-08-16T21:13:10.058Z,100825.34
2018-08-16T21:15:36.051Z,100829.48
2018-08-16T21:18:02.039Z,100834.20
2018-08-16T21:20:28.159Z,100832.86
2018-08-16T21:22:54.137Z,100836.03
2018-08-16T21:25:20.195Z,100838.64
2018-08-16T21:27:46.195Z,100841.17
2018-08-16T21:30:12.214Z,100835.38
2018-08-16T21:32:38.296Z,100842.98
2018-08-16T21:35:04.270Z,100844.17
2018-08-16T21:37:30.272Z,100838.17
2018-08-16T21:39:57.335Z,100842.98
2018-08-16T21:42:23.294Z,100840.00
2018-08-16T21:44:49.257Z,100846.67
2018-08-16T21:47:15.221Z,100844.89
2018-08-16T21:49:41.209Z,100842.53
2018-08-16T21:52:07.269Z,100847.02
2018-08-16T21:54:33.217Z,100844.69
2018-08-16T21:56:59.183Z,100847.02
2018-08-16T21:59:25.446Z,100844.31
2018-08-16T22:01:51.441Z,100846.19
2018-08-16T22:04:17.433Z,100846.19
2018-08-16T22:06:43.427Z,100851.61
2018-08-16T22:09:09.425Z,100847.02
2018-08-16T22:11:35.397Z,100846.00
2018-08-16T22:14:01.411Z,100846.05
2018-08-16T22:16:27.388Z,100843.38
2018-08-16T22:18:53.468Z,100841.55
2018-08-16T22:21:19.434Z,100836.09
2018-08-16T22:23:45.468Z,100837.59
2018-08-16T22:26:11.490Z,100831.95
2018-08-16T22:28:37.462Z,100837.93
2018-08-16T22:31:03.459Z,100834.45
2018-08-16T22:33:29.444Z,100827.45
2018-08-16T22:35:55.453Z,100835.78
2018-08-16T22:38:21.451Z,100833.73
2018-08-16T22:40:47.462Z,100839.22
2018-08-16T22:43:13.458Z,100831.59
2018-08-16T22:45:39.466Z,100839.77
2018-08-16T22:48:05.459Z,100847.55
2018-08-16T22:50:31.433Z,100841.58
2018-08-16T22:52:57.430Z,100852.75
2018-08-16T22:55:23.434Z,100848.48
2018-08-16T22:57:49.367Z,100849.38
2018-08-16T23:00:15.407Z,100844.78
2018-08-16T23:02:41.393Z,100842.75
2018-08-16T23:05:07.379Z,100843.41
2018-08-16T23:07:33.731Z,100846.89
2018-08-16T23:09:59.688Z,100844.08
2018-08-16T23:12:25.666Z,100836.81
2018-08-16T23:14:51.628Z,100838.77
2018-08-16T23:17:17.851Z,100834.30
2018-08-16T23:19:43.816Z,100832.77
2018-08-16T23:22:09.866Z,100832.82
2018-08-16T23:24:35.882Z,100832.77
2018-08-16T23:27:01.899Z,100827.14
2018-08-16T23:29:27.872Z,100821.67
2018-08-16T23:31:53.855Z,100818.97
2018-08-16T23:34:19.839Z,100816.16
2018-08-16T23:36:45.785Z,100818.30
2018-08-16T23:39:11.780Z,100818.16
2018-08-16T23:41:37.759Z,100814.84
2018-08-16T23:44:03.850Z,100816.06
2018-08-16T23:46:29.840Z,100816.83
2018-08-16T23:48:55.820Z,100811.86
2018-08-16T23:51:21.784Z,100812.38
2018-08-16T23:53:47.749Z,100809.07
2018-08-16T23:56:13.703Z,100807.38
2018-08-16T23:58:39.719Z,100809.89
